sensor_id;sensor_type;location;lat;lon;timestamp;pressure;altitude;pressure_sealevel;temperature;humidity
73817;BME280;62146;53.232;-1.304;2022-12-19T00:01:39;99162.34;;;6.80;100.00
73817;BME280;62146;53.232;-1.304;2022-12-19T00:04:09;99156.81;;;6.81;100.00
73817;BME280;62146;53.232;-1.304;2022-12-19T00:06:37;99151.88;;;6.85;100.00
73817;BME280;62146;53.232;-1.304;2022-12-19T00:09:10;99158.00;;;6.90;100.00
73817;BME280;62146;53.232;-1.304;2022-12-19T00:11:37;99161.75;;;6.94;100.00
73817;BME280;62146;53.232;-1.304;2022-12-19T00:14:04;99140.19;;;6.97;100.00
73817;BME280;62146;53.232;-1.304;2022-12-19T00:16:32;99134.94;;;7.02;100.00
73817;BME280;62146;53.232;-1.304;2022-12-19T00:18:59;99131.81;;;7.05;100.00
73817;BME280;62146;53.232;-1.304;2022-12-19T00:21:29;99122.59;;;7.07;100.00
73817;BME280;62146;53.232;-1.304;2022-12-19T00:23:56;99115.56;;;7.13;100.00
73817;BME280;62146;53.232;-1.304;2022-12-19T00:26:24;99106.34;;;7.15;100.00
73817;BME280;62146;53.232;-1.304;2022-12-19T00:28:53;99108.00;;;7.21;100.00
73817;BME280;62146;53.232;-1.304;2022-12-19T00:31:22;99110.16;;;7.24;100.00
73817;BME280;62146;53.232;-1.304;2022-12-19T00:33:49;99110.69;;;7.26;100.00
73817;BME280;62146;53.232;-1.304;2022-12-19T00:36:17;99122.31;;;7.30;100.00
73817;BME280;62146;53.232;-1.304;2022-12-19T00:38:49;99112.06;;;7.33;100.00
73817;BME280;62146;53.232;-1.304;2022-12-19T00:41:22;99115.00;;;7.37;100.00
73817;BME280;62146;53.232;-1.304;2022-12-19T00:43:54;99116.88;;;7.41;100.00
73817;BME280;62146;53.232;-1.304;2022-12-19T00:46:21;99113.75;;;7.44;100.00
73817;BME280;62146;53.232;-1.304;2022-12-19T00:48:48;99105.34;;;7.47;100.00
73817;BME280;62146;53.232;-1.304;2022-12-19T00:51:17;99101.16;;;7.51;100.00
73817;BME280;62146;53.232;-1.304;2022-12-19T00:53:45;99114.66;;;7.54;100.00
73817;BME280;62146;53.232;-1.304;2022-12-19T00:56:19;99114.94;;;7.58;100.00
73817;BME280;62146;53.232;-1.304;2022-12-19T00:58:46;99102.00;;;7.61;100.00
73817;BME280;62146;53.232;-1.304;2022-12-19T01:01:18;99088.31;;;7.64;100.00
73817;BME280;62146;53.232;-1.304;2022-12-19T01:03:47;99078.84;;;7.68;100.00
73817;BME280;62146;53.232;-1.304;2022-12-19T01:06:34;99082.59;;;7.72;100.00
73817;BME280;62146;53.232;-1.304;2022-12-19T01:09:01;99068.63;;;7.76;100.00
73817;BME280;62146;53.232;-1.304;2022-12-19T01:11:27;99055.72;;;7.80;100.00
73817;BME280;62146;53.232;-1.304;2022-12-19T01:14:13;99057.59;;;7.84;100.00
73817;BME280;62146;53.232;-1.304;2022-12-19T01:16:48;99082.69;;;7.87;100.00
73817;BME280;62146;53.232;-1.304;2022-12-19T01:19:15;99067.94;;;7.91;100.00
73817;BME280;62146;53.232;-1.304;2022-12-19T01:21:41;99065.59;;;7.94;100.00
73817;BME280;62146;53.232;-1.304;2022-12-19T01:24:09;99077.50;;;7.97;100.00
73817;BME280;62146;53.232;-1.304;2022-12-19T01:26:35;99064.31;;;8.01;100.00
73817;BME280;62146;53.232;-1.304;2022-12-19T01:29:03;99051.44;;;8.05;100.00
73817;BME280;62146;53.232;-1.304;2022-12-19T01:31:30;99047.50;;;8.07;100.00
73817;BME280;62146;53.232;-1.304;2022-12-19T01:33:58;99044.31;;;8.10;100.00
73817;BME280;62146;53.232;-1.304;2022-12-19T01:36:24;99042.22;;;8.12;100.00
73817;BME280;62146;53.232;-1.304;2022-12-19T01:38:54;99064.16;;;8.18;100.00
73817;BME280;62146;53.232;-1.304;2022-12-19T01:41:21;99059.16;;;8.21;100.00
73817;BME280;62146;53.232;-1.304;2022-12-19T01:46:26;99070.31;;;8.28;100.00
73817;BME280;62146;53.232;-1.304;2022-12-19T01:48:55;99069.78;;;8.31;100.00
73817;BME280;62146;53.232;-1.304;2022-12-19T01:51:25;99077.44;;;8.32;100.00
73817;BME280;62146;53.232;-1.304;2022-12-19T01:53:59;99054.50;;;8.38;100.00
73817;BME280;62146;53.232;-1.304;2022-12-19T01:56:31;99059.53;;;8.39;100.00
73817;BME280;62146;53.232;-1.304;2022-12-19T01:59:03;99045.81;;;8.42;100.00
73817;BME280;62146;53.232;-1.304;2022-12-19T02:01:33;99045.81;;;8.47;100.00
73817;BME280;62146;53.232;-1.304;2022-12-19T02:04:01;99052.44;;;8.50;100.00
73817;BME280;62146;53.232;-1.304;2022-12-19T02:06:29;99056.94;;;8.54;100.00
73817;BME280;62146;53.232;-1.304;2022-12-19T02:08:57;99040.81;;;8.55;100.00
73817;BME280;62146;53.232;-1.304;2022-12-19T02:11:23;99047.19;;;8.59;100.00
73817;BME280;62146;53.232;-1.304;2022-12-19T02:13:50;99036.09;;;8.62;100.00
73817;BME280;62146;53.232;-1.304;2022-12-19T02:25:14;99041.66;;;8.76;100.00
73817;BME280;62146;53.232;-1.304;2022-12-19T02:28:09;99035.88;;;8.79;100.00
73817;BME280;62146;53.232;-1.304;2022-12-19T02:33:16;99034.84;;;8.84;100.00
73817;BME280;62146;53.232;-1.304;2022-12-19T02:35:59;99029.81;;;8.88;100.00
73817;BME280;62146;53.232;-1.304;2022-12-19T02:38:38;99033.00;;;8.90;100.00
73817;BME280;62146;53.232;-1.304;2022-12-19T02:41:12;99028.75;;;8.94;100.00
73817;BME280;62146;53.232;-1.304;2022-12-19T02:43:43;99023.22;;;8.95;100.00
73817;BME280;62146;53.232;-1.304;2022-12-19T02:46:14;99042.81;;;8.99;100.00
73817;BME280;62146;53.232;-1.304;2022-12-19T02:48:42;99022.97;;;9.02;100.00
73817;BME280;62146;53.232;-1.304;2022-12-19T02:51:09;99031.94;;;9.06;100.00
73817;BME280;62146;53.232;-1.304;2022-12-19T02:53:36;99027.22;;;9.08;100.00
73817;BME280;62146;53.232;-1.304;2022-12-19T02:59:01;99035.69;;;9.14;100.00
73817;BME280;62146;53.232;-1.304;2022-12-19T03:01:48;99032.50;;;9.17;100.00
73817;BME280;62146;53.232;-1.304;2022-12-19T03:04:46;99042.31;;;9.22;100.00
73817;BME280;62146;53.232;-1.304;2022-12-19T03:10:04;99035.16;;;9.27;100.00
73817;BME280;62146;53.232;-1.304;2022-12-19T03:15:41;99023.78;;;9.32;100.00
73817;BME280;62146;53.232;-1.304;2022-12-19T03:18:08;99016.09;;;9.35;100.00
73817;BME280;62146;53.232;-1.304;2022-12-19T03:20:49;99020.09;;;9.37;100.00
73817;BME280;62146;53.232;-1.304;2022-12-19T03:23:17;99016.88;;;9.40;100.00
73817;BME280;62146;53.232;-1.304;2022-12-19T03:25:47;99033.31;;;9.42;100.00
73817;BME280;62146;53.232;-1.304;2022-12-19T03:28:20;99032.00;;;9.45;100.00
73817;BME280;62146;53.232;-1.304;2022-12-19T03:30:50;99032.50;;;9.47;100.00
73817;BME280;62146;53.232;-1.304;2022-12-19T03:33:18;99034.34;;;9.51;100.00
73817;BME280;62146;53.232;-1.304;2022-12-19T03:35:48;99034.09;;;9.53;100.00
73817;BME280;62146;53.232;-1.304;2022-12-19T03:38:17;99038.84;;;9.56;100.00
73817;BME280;62146;53.232;-1.304;2022-12-19T03:40:45;99033.28;;;9.57;100.00
73817;BME280;62146;53.232;-1.304;2022-12-19T03:43:14;99024.03;;;9.60;100.00
73817;BME280;62146;53.232;-1.304;2022-12-19T03:48:43;99034.34;;;9.66;100.00
73817;BME280;62146;53.232;-1.304;2022-12-19T03:54:05;99028.00;;;9.72;100.00
73817;BME280;62146;53.232;-1.304;2022-12-19T03:59:12;99034.34;;;9.76;100.00
73817;BME280;62146;53.232;-1.304;2022-12-19T04:01:42;99031.16;;;9.79;100.00
73817;BME280;62146;53.232;-1.304;2022-12-19T04:04:10;99029.81;;;9.81;100.00
73817;BME280;62146;53.232;-1.304;2022-12-19T04:06:38;99027.72;;;9.83;100.00
73817;BME280;62146;53.232;-1.304;2022-12-19T04:09:06;99028.22;;;9.85;100.00
73817;BME280;62146;53.232;-1.304;2022-12-19T04:11:37;99021.34;;;9.89;100.00
73817;BME280;62146;53.232;-1.304;2022-12-19T04:14:13;99035.94;;;9.91;100.00
73817;BME280;62146;53.232;-1.304;2022-12-19T04:19:30;99021.09;;;9.95;100.00
73817;BME280;62146;53.232;-1.304;2022-12-19T04:22:15;99031.16;;;9.98;100.00
73817;BME280;62146;53.232;-1.304;2022-12-19T04:24:44;99024.50;;;10.01;100.00
73817;BME280;62146;53.232;-1.304;2022-12-19T04:27:12;99015.25;;;10.03;100.00
73817;BME280;62146;53.232;-1.304;2022-12-19T04:29:40;99016.56;;;10.06;100.00
73817;BME280;62146;53.232;-1.304;2022-12-19T04:32:08;99029.53;;;10.07;100.00
73817;BME280;62146;53.232;-1.304;2022-12-19T04:34:35;99016.53;;;10.11;100.00
73817;BME280;62146;53.232;-1.304;2022-12-19T04:37:09;99018.91;;;10.12;100.00
73817;BME280;62146;53.232;-1.304;2022-12-19T04:39:36;99020.75;;;10.16;100.00
73817;BME280;62146;53.232;-1.304;2022-12-19T04:42:02;99015.97;;;10.18;100.00
73817;BME280;62146;53.232;-1.304;2022-12-19T04:44:29;99021.53;;;10.22;100.00
73817;BME280;62146;53.232;-1.304;2022-12-19T04:46:55;99031.59;;;10.25;100.00
73817;BME280;62146;53.232;-1.304;2022-12-19T04:49:22;99021.50;;;10.27;100.00
73817;BME280;62146;53.232;-1.304;2022-12-19T04:51:49;99024.69;;;10.29;100.00
73817;BME280;62146;53.232;-1.304;2022-12-19T04:54:16;99024.94;;;10.32;100.00
73817;BME280;62146;53.232;-1.304;2022-12-19T04:56:42;99019.63;;;10.37;100.00
73817;BME280;62146;53.232;-1.304;2022-12-19T04:59:09;99016.97;;;10.37;100.00
73817;BME280;62146;53.232;-1.304;2022-12-19T05:01:36;99009.53;;;10.39;100.00
73817;BME280;62146;53.232;-1.304;2022-12-19T05:04:02;99003.44;;;10.43;100.00
73817;BME280;62146;53.232;-1.304;2022-12-19T05:06:30;99007.38;;;10.46;100.00
73817;BME280;62146;53.232;-1.304;2022-12-19T05:08:56;99014.00;;;10.48;100.00
73817;BME280;62146;53.232;-1.304;2022-12-19T05:11:23;99011.06;;;10.50;100.00
73817;BME280;62146;53.232;-1.304;2022-12-19T05:13:49;99004.44;;;10.52;100.00
73817;BME280;62146;53.232;-1.304;2022-12-19T05:16:17;98999.41;;;10.56;100.00
73817;BME280;62146;53.232;-1.304;2022-12-19T05:18:43;99007.06;;;10.57;100.00
73817;BME280;62146;53.232;-1.304;2022-12-19T05:21:10;99005.44;;;10.61;100.00
73817;BME280;62146;53.232;-1.304;2022-12-19T05:23:37;99009.13;;;10.65;100.00
73817;BME280;62146;53.232;-1.304;2022-12-19T05:26:04;99009.94;;;10.66;100.00
73817;BME280;62146;53.232;-1.304;2022-12-19T05:28:32;99006.47;;;10.70;100.00
73817;BME280;62146;53.232;-1.304;2022-12-19T05:31:14;99002.75;;;10.71;100.00
73817;BME280;62146;53.232;-1.304;2022-12-19T05:33:42;99013.63;;;10.74;100.00
73817;BME280;62146;53.232;-1.304;2022-12-19T05:36:09;99011.47;;;10.76;100.00
73817;BME280;62146;53.232;-1.304;2022-12-19T05:38:36;99012.00;;;10.78;100.00
73817;BME280;62146;53.232;-1.304;2022-12-19T05:41:10;99019.38;;;10.81;100.00
73817;BME280;62146;53.232;-1.304;2022-12-19T05:43:42;99002.13;;;10.84;100.00
73817;BME280;62146;53.232;-1.304;2022-12-19T05:46:08;98997.09;;;10.87;100.00
73817;BME280;62146;53.232;-1.304;2022-12-19T05:48:36;99005.56;;;10.89;100.00
73817;BME280;62146;53.232;-1.304;2022-12-19T05:51:02;99008.72;;;10.91;100.00
73817;BME280;62146;53.232;-1.304;2022-12-19T05:53:29;99009.75;;;10.95;100.00
73817;BME280;62146;53.232;-1.304;2022-12-19T05:56:12;99003.91;;;10.98;100.00
73817;BME280;62146;53.232;-1.304;2022-12-19T05:58:40;99003.91;;;10.98;100.00
73817;BME280;62146;53.232;-1.304;2022-12-19T06:01:09;99006.03;;;11.01;100.00
73817;BME280;62146;53.232;-1.304;2022-12-19T06:03:37;99011.81;;;11.03;100.00
73817;BME280;62146;53.232;-1.304;2022-12-19T06:06:06;99010.50;;;11.05;100.00
73817;BME280;62146;53.232;-1.304;2022-12-19T06:08:33;99009.13;;;11.08;100.00
73817;BME280;62146;53.232;-1.304;2022-12-19T06:11:02;99013.09;;;11.10;100.00
73817;BME280;62146;53.232;-1.304;2022-12-19T06:13:29;99005.66;;;11.12;100.00
73817;BME280;62146;53.232;-1.304;2022-12-19T06:16:00;99001.94;;;11.13;100.00
73817;BME280;62146;53.232;-1.304;2022-12-19T06:18:28;99001.41;;;11.16;100.00
73817;BME280;62146;53.232;-1.304;2022-12-19T06:21:00;99010.94;;;11.17;100.00
73817;BME280;62146;53.232;-1.304;2022-12-19T06:23:29;99000.03;;;11.19;100.00
73817;BME280;62146;53.232;-1.304;2022-12-19T06:25:56;98985.94;;;11.23;100.00
73817;BME280;62146;53.232;-1.304;2022-12-19T06:28:24;99008.75;;;11.24;100.00
73817;BME280;62146;53.232;-1.304;2022-12-19T06:30:51;98989.59;;;11.27;100.00
73817;BME280;62146;53.232;-1.304;2022-12-19T06:33:17;98993.59;;;11.29;100.00
73817;BME280;62146;53.232;-1.304;2022-12-19T06:35:44;98994.09;;;11.31;100.00
73817;BME280;62146;53.232;-1.304;2022-12-19T06:38:11;98997.25;;;11.33;100.00
73817;BME280;62146;53.232;-1.304;2022-12-19T06:40:42;98985.31;;;11.36;100.00
73817;BME280;62146;53.232;-1.304;2022-12-19T06:43:27;98989.53;;;11.37;100.00
73817;BME280;62146;53.232;-1.304;2022-12-19T06:45:55;98992.75;;;11.39;100.00
73817;BME280;62146;53.232;-1.304;2022-12-19T06:48:22;98983.41;;;11.41;100.00
73817;BME280;62146;53.232;-1.304;2022-12-19T06:50:49;98981.56;;;11.42;100.00
73817;BME280;62146;53.232;-1.304;2022-12-19T06:53:19;98968.81;;;11.44;100.00
73817;BME280;62146;53.232;-1.304;2022-12-19T06:55:47;98973.56;;;11.47;100.00
73817;BME280;62146;53.232;-1.304;2022-12-19T06:58:14;98975.16;;;11.48;100.00
73817;BME280;62146;53.232;-1.304;2022-12-19T07:00:48;98980.16;;;11.49;100.00
73817;BME280;62146;53.232;-1.304;2022-12-19T07:03:17;98976.97;;;11.52;100.00
73817;BME280;62146;53.232;-1.304;2022-12-19T07:05:44;98974.81;;;11.54;100.00
73817;BME280;62146;53.232;-1.304;2022-12-19T07:08:10;98980.94;;;11.54;100.00
73817;BME280;62146;53.232;-1.304;2022-12-19T07:10:37;98979.28;;;11.58;100.00
73817;BME280;62146;53.232;-1.304;2022-12-19T07:13:04;98984.31;;;11.60;100.00
73817;BME280;62146;53.232;-1.304;2022-12-19T07:15:32;98975.25;;;11.61;100.00
73817;BME280;62146;53.232;-1.304;2022-12-19T07:18:02;98991.72;;;11.63;100.00
73817;BME280;62146;53.232;-1.304;2022-12-19T07:20:32;98983.75;;;11.63;100.00
73817;BME280;62146;53.232;-1.304;2022-12-19T07:23:00;98979.47;;;11.67;100.00
73817;BME280;62146;53.232;-1.304;2022-12-19T07:25:27;98985.56;;;11.67;100.00
73817;BME280;62146;53.232;-1.304;2022-12-19T07:27:54;98980.78;;;11.69;100.00
73817;BME280;62146;53.232;-1.304;2022-12-19T07:30:20;98972.53;;;11.71;100.00
73817;BME280;62146;53.232;-1.304;2022-12-19T07:32:47;98990.03;;;11.72;100.00
73817;BME280;62146;53.232;-1.304;2022-12-19T07:35:14;98988.69;;;11.74;100.00
73817;BME280;62146;53.232;-1.304;2022-12-19T07:37:41;98966.06;;;11.77;100.00
73817;BME280;62146;53.232;-1.304;2022-12-19T07:40:09;98975.66;;;11.77;100.00
73817;BME280;62146;53.232;-1.304;2022-12-19T07:42:36;98967.38;;;11.79;100.00
73817;BME280;62146;53.232;-1.304;2022-12-19T07:45:03;98967.13;;;11.80;100.00
73817;BME280;62146;53.232;-1.304;2022-12-19T07:47:29;98959.94;;;11.81;100.00
73817;BME280;62146;53.232;-1.304;2022-12-19T07:49:56;98956.22;;;11.82;100.00
73817;BME280;62146;53.232;-1.304;2022-12-19T07:52:23;98967.31;;;11.84;100.00
73817;BME280;62146;53.232;-1.304;2022-12-19T07:54:49;98963.63;;;11.85;100.00
73817;BME280;62146;53.232;-1.304;2022-12-19T07:57:16;98968.63;;;11.86;100.00
73817;BME280;62146;53.232;-1.304;2022-12-19T07:59:43;98978.19;;;11.87;100.00
73817;BME280;62146;53.232;-1.304;2022-12-19T08:02:09;98978.69;;;11.89;100.00
73817;BME280;62146;53.232;-1.304;2022-12-19T08:04:37;98976.53;;;11.91;100.00
73817;BME280;62146;53.232;-1.304;2022-12-19T08:07:04;98978.41;;;11.91;100.00
73817;BME280;62146;53.232;-1.304;2022-12-19T08:09:31;98987.69;;;11.93;100.00
73817;BME280;62146;53.232;-1.304;2022-12-19T08:11:58;98978.63;;;11.94;100.00
73817;BME280;62146;53.232;-1.304;2022-12-19T08:14:24;98984.75;;;11.95;100.00
73817;BME280;62146;53.232;-1.304;2022-12-19T08:16:51;98989.78;;;11.96;100.00
73817;BME280;62146;53.232;-1.304;2022-12-19T08:19:37;98987.91;;;11.97;100.00
73817;BME280;62146;53.232;-1.304;2022-12-19T08:22:04;98985.75;;;11.99;100.00
73817;BME280;62146;53.232;-1.304;2022-12-19T08:24:30;98999.56;;;12.01;100.00
73817;BME280;62146;53.232;-1.304;2022-12-19T08:26:57;98995.03;;;12.01;100.00
73817;BME280;62146;53.232;-1.304;2022-12-19T08:29:23;98990.50;;;12.02;100.00
73817;BME280;62146;53.232;-1.304;2022-12-19T08:31:50;98996.06;;;12.05;100.00
73817;BME280;62146;53.232;-1.304;2022-12-19T08:34:17;99001.38;;;12.05;100.00
73817;BME280;62146;53.232;-1.304;2022-12-19T08:36:43;99003.75;;;12.06;100.00
73817;BME280;62146;53.232;-1.304;2022-12-19T08:39:10;99005.34;;;12.07;100.00
73817;BME280;62146;53.232;-1.304;2022-12-19T08:41:36;99010.06;;;12.10;100.00
73817;BME280;62146;53.232;-1.304;2022-12-19T08:44:03;99008.50;;;12.09;100.00
73817;BME280;62146;53.232;-1.304;2022-12-19T08:46:30;99005.56;;;12.11;100.00
73817;BME280;62146;53.232;-1.304;2022-12-19T08:48:57;98999.97;;;12.12;100.00
73817;BME280;62146;53.232;-1.304;2022-12-19T08:51:23;99000.47;;;12.14;100.00
73817;BME280;62146;53.232;-1.304;2022-12-19T08:53:50;98974.69;;;12.15;100.00
73817;BME280;62146;53.232;-1.304;2022-12-19T08:56:19;98978.94;;;12.16;100.00
73817;BME280;62146;53.232;-1.304;2022-12-19T08:58:47;98974.09;;;12.18;100.00
73817;BME280;62146;53.232;-1.304;2022-12-19T09:01:18;98979.41;;;12.18;100.00
73817;BME280;62146;53.232;-1.304;2022-12-19T09:03:46;98972.75;;;12.20;100.00
73817;BME280;62146;53.232;-1.304;2022-12-19T09:06:32;98974.34;;;12.21;100.00
73817;BME280;62146;53.232;-1.304;2022-12-19T09:09:00;98978.56;;;12.22;100.00
73817;BME280;62146;53.232;-1.304;2022-12-19T09:11:26;98971.69;;;12.21;100.00
73817;BME280;62146;53.232;-1.304;2022-12-19T09:13:54;98979.88;;;12.25;100.00
73817;BME280;62146;53.232;-1.304;2022-12-19T09:16:23;98976.13;;;12.26;100.00
73817;BME280;62146;53.232;-1.304;2022-12-19T09:18:52;98960.19;;;12.26;100.00
73817;BME280;62146;53.232;-1.304;2022-12-19T09:21:22;98971.34;;;12.28;100.00
73817;BME280;62146;53.232;-1.304;2022-12-19T09:23:51;98968.38;;;12.29;100.00
73817;BME280;62146;53.232;-1.304;2022-12-19T09:26:20;98973.44;;;12.31;100.00
73817;BME280;62146;53.232;-1.304;2022-12-19T09:28:49;98965.47;;;12.31;100.00
73817;BME280;62146;53.232;-1.304;2022-12-19T09:31:18;98965.16;;;12.32;100.00
73817;BME280;62146;53.232;-1.304;2022-12-19T09:33:46;98969.13;;;12.34;100.00
73817;BME280;62146;53.232;-1.304;2022-12-19T09:36:17;98962.72;;;12.35;100.00
73817;BME280;62146;53.232;-1.304;2022-12-19T09:38:45;98963.53;;;12.36;100.00
73817;BME280;62146;53.232;-1.304;2022-12-19T09:46:47;98957.34;;;12.40;100.00
73817;BME280;62146;53.232;-1.304;2022-12-19T09:49:24;98950.66;;;12.43;100.00
73817;BME280;62146;53.232;-1.304;2022-12-19T09:55:27;98956.47;;;12.45;100.00
73817;BME280;62146;53.232;-1.304;2022-12-19T09:58:29;98956.47;;;12.45;100.00
73817;BME280;62146;53.232;-1.304;2022-12-19T10:00:59;98974.03;;;12.46;100.00
73817;BME280;62146;53.232;-1.304;2022-12-19T10:03:37;98966.28;;;12.49;100.00
73817;BME280;62146;53.232;-1.304;2022-12-19T10:06:22;98972.38;;;12.50;100.00
73817;BME280;62146;53.232;-1.304;2022-12-19T10:09:13;98973.97;;;12.51;100.00
73817;BME280;62146;53.232;-1.304;2022-12-19T10:12:31;98973.66;;;12.52;100.00
73817;BME280;62146;53.232;-1.304;2022-12-19T10:18:50;98967.00;;;12.55;100.00
73817;BME280;62146;53.232;-1.304;2022-12-19T10:30:28;98964.56;;;12.58;100.00
73817;BME280;62146;53.232;-1.304;2022-12-19T10:35:36;98953.34;;;12.61;100.00
73817;BME280;62146;53.232;-1.304;2022-12-19T10:38:15;98947.44;;;12.64;100.00
73817;BME280;62146;53.232;-1.304;2022-12-19T10:41:27;98932.00;;;12.66;100.00
73817;BME280;62146;53.232;-1.304;2022-12-19T10:44:04;98925.31;;;12.68;100.00
73817;BME280;62146;53.232;-1.304;2022-12-19T10:46:39;98925.00;;;12.70;100.00
73817;BME280;62146;53.232;-1.304;2022-12-19T10:54:22;98928.72;;;12.74;100.00
73817;BME280;62146;53.232;-1.304;2022-12-19T10:57:26;98933.25;;;12.73;100.00
73817;BME280;62146;53.232;-1.304;2022-12-19T11:00:04;98919.66;;;12.75;100.00
73817;BME280;62146;53.232;-1.304;2022-12-19T11:02:40;98935.03;;;12.78;100.00
73817;BME280;62146;53.232;-1.304;2022-12-19T11:10:39;98906.28;;;12.80;100.00
73817;BME280;62146;53.232;-1.304;2022-12-19T11:13:42;98919.00;;;12.83;100.00
73817;BME280;62146;53.232;-1.304;2022-12-19T11:16:34;98914.44;;;12.83;100.00
73817;BME280;62146;53.232;-1.304;2022-12-19T11:19:34;98908.84;;;12.85;100.00
73817;BME280;62146;53.232;-1.304;2022-12-19T11:22:24;98897.13;;;12.85;100.00
73817;BME280;62146;53.232;-1.304;2022-12-19T11:28:32;98907.19;;;12.88;100.00
73817;BME280;62146;53.232;-1.304;2022-12-19T11:31:22;98892.53;;;12.91;100.00
73817;BME280;62146;53.232;-1.304;2022-12-19T11:34:14;98874.69;;;12.91;100.00
73817;BME280;62146;53.232;-1.304;2022-12-19T11:39:21;98862.38;;;12.95;100.00
73817;BME280;62146;53.232;-1.304;2022-12-19T11:44:39;98870.06;;;12.97;100.00
73817;BME280;62146;53.232;-1.304;2022-12-19T11:47:30;98869.75;;;12.98;100.00
73817;BME280;62146;53.232;-1.304;2022-12-19T11:50:07;98863.38;;;12.99;100.00
73817;BME280;62146;53.232;-1.304;2022-12-19T11:52:40;98853.22;;;13.01;100.00
73817;BME280;62146;53.232;-1.304;2022-12-19T11:55:45;98848.69;;;13.02;100.00
73817;BME280;62146;53.232;-1.304;2022-12-19T11:58:14;98842.78;;;13.05;100.00
73817;BME280;62146;53.232;-1.304;2022-12-19T12:04:07;98847.84;;;13.06;100.00
73817;BME280;62146;53.232;-1.304;2022-12-19T12:06:51;98834.53;;;13.06;100.00
73817;BME280;62146;53.232;-1.304;2022-12-19T12:09:32;98837.66;;;13.08;100.00
73817;BME280;62146;53.232;-1.304;2022-12-19T12:12:30;98840.31;;;13.08;100.00
73817;BME280;62146;53.232;-1.304;2022-12-19T12:18:36;98838.50;;;13.35;100.00
73817;BME280;62146;53.232;-1.304;2022-12-19T12:21:42;98831.59;;;13.47;100.00
73817;BME280;62146;53.232;-1.304;2022-12-19T12:39:53;98815.63;;;13.34;100.00
73817;BME280;62146;53.232;-1.304;2022-12-19T12:42:49;98819.06;;;13.35;100.00
73817;BME280;62146;53.232;-1.304;2022-12-19T12:45:40;98811.38;;;13.33;100.00
73817;BME280;62146;53.232;-1.304;2022-12-19T12:48:19;98805.75;;;13.35;100.00
73817;BME280;62146;53.232;-1.304;2022-12-19T12:50:48;98798.84;;;13.34;100.00
73817;BME280;62146;53.232;-1.304;2022-12-19T12:53:23;98795.69;;;13.32;100.00
73817;BME280;62146;53.232;-1.304;2022-12-19T12:55:54;98786.59;;;13.33;100.00
73817;BME280;62146;53.232;-1.304;2022-12-19T12:59:02;98773.03;;;13.34;100.00
73817;BME280;62146;53.232;-1.304;2022-12-19T13:01:38;98785.81;;;13.32;100.00
73817;BME280;62146;53.232;-1.304;2022-12-19T13:09:20;98800.72;;;13.33;100.00
73817;BME280;62146;53.232;-1.304;2022-12-19T13:11:53;98810.28;;;13.34;100.00
73817;BME280;62146;53.232;-1.304;2022-12-19T13:14:44;98802.88;;;13.31;100.00
73817;BME280;62146;53.232;-1.304;2022-12-19T13:24:58;98780.41;;;13.37;100.00
73817;BME280;62146;53.232;-1.304;2022-12-19T13:32:20;98767.31;;;13.40;100.00
73817;BME280;62146;53.232;-1.304;2022-12-19T13:34:58;98754.00;;;13.40;100.00
73817;BME280;62146;53.232;-1.304;2022-12-19T13:37:48;98756.66;;;13.40;100.00
73817;BME280;62146;53.232;-1.304;2022-12-19T13:43:17;98754.66;;;13.46;100.00
73817;BME280;62146;53.232;-1.304;2022-12-19T13:48:51;98755.44;;;13.46;100.00
73817;BME280;62146;53.232;-1.304;2022-12-19T13:51:19;98754.84;;;13.49;100.00
73817;BME280;62146;53.232;-1.304;2022-12-19T13:53:51;98751.09;;;13.50;100.00
73817;BME280;62146;53.232;-1.304;2022-12-19T13:56:29;98735.13;;;13.50;100.00
73817;BME280;62146;53.232;-1.304;2022-12-19T13:59:01;98748.44;;;13.50;100.00
73817;BME280;62146;53.232;-1.304;2022-12-19T14:01:31;98748.16;;;13.52;100.00
73817;BME280;62146;53.232;-1.304;2022-12-19T14:04:08;98754.56;;;13.51;100.00
73817;BME280;62146;53.232;-1.304;2022-12-19T14:06:44;98751.41;;;13.49;100.00
73817;BME280;62146;53.232;-1.304;2022-12-19T14:09:34;98758.31;;;13.50;100.00
73817;BME280;62146;53.232;-1.304;2022-12-19T14:12:27;98750.63;;;13.48;100.00
73817;BME280;62146;53.232;-1.304;2022-12-19T14:15:39;98760.47;;;13.48;100.00
73817;BME280;62146;53.232;-1.304;2022-12-19T14:18:15;98760.47;;;13.48;100.00
73817;BME280;62146;53.232;-1.304;2022-12-19T14:21:18;98745.31;;;13.48;100.00
73817;BME280;62146;53.232;-1.304;2022-12-19T14:24:25;98741.03;;;13.47;100.00
73817;BME280;62146;53.232;-1.304;2022-12-19T14:26:56;98741.03;;;13.47;100.00
73817;BME280;62146;53.232;-1.304;2022-12-19T14:29:48;98751.69;;;13.47;100.00
73817;BME280;62146;53.232;-1.304;2022-12-19T14:32:36;98726.94;;;13.47;100.00
73817;BME280;62146;53.232;-1.304;2022-12-19T14:35:30;98740.25;;;13.47;100.00
73817;BME280;62146;53.232;-1.304;2022-12-19T14:38:21;98749.03;;;13.47;100.00
73817;BME280;62146;53.232;-1.304;2022-12-19T14:41:18;98737.31;;;13.48;100.00
73817;BME280;62146;53.232;-1.304;2022-12-19T14:44:06;98748.75;;;13.49;100.00
73817;BME280;62146;53.232;-1.304;2022-12-19T14:47:26;98738.88;;;13.49;100.00
73817;BME280;62146;53.232;-1.304;2022-12-19T14:53:18;98746.88;;;13.49;100.00
73817;BME280;62146;53.232;-1.304;2022-12-19T14:56:11;98749.72;;;13.53;100.00
73817;BME280;62146;53.232;-1.304;2022-12-19T14:59:00;98746.75;;;13.67;100.00
73817;BME280;62146;53.232;-1.304;2022-12-19T15:01:32;98754.63;;;13.59;100.00
73817;BME280;62146;53.232;-1.304;2022-12-19T15:04:02;98768.25;;;13.58;100.00
73817;BME280;62146;53.232;-1.304;2022-12-19T15:06:52;98759.78;;;13.56;100.00
73817;BME280;62146;53.232;-1.304;2022-12-19T15:09:43;98761.38;;;13.57;100.00
73817;BME280;62146;53.232;-1.304;2022-12-19T15:16:00;98765.41;;;13.54;100.00
73817;BME280;62146;53.232;-1.304;2022-12-19T15:18:38;98774.47;;;13.53;100.00
73817;BME280;62146;53.232;-1.304;2022-12-19T15:21:09;98774.97;;;13.55;100.00
73817;BME280;62146;53.232;-1.304;2022-12-19T15:23:36;98766.50;;;13.53;100.00
73817;BME280;62146;53.232;-1.304;2022-12-19T15:26:06;98766.50;;;13.53;100.00